createdAt,value
2022-11-27T00:01:24.293Z,6.52
2022-11-27T00:06:24.881Z,6.44
2022-11-27T00:11:22.759Z,6.54
2022-11-27T00:16:23.647Z,6.52
2022-11-27T00:21:16.522Z,6.50
2022-11-27T00:26:10.444Z,6.48
2022-11-27T00:31:03.325Z,6.47
2022-11-27T00:36:02.110Z,6.42
2022-11-27T00:41:05.393Z,6.43
2022-11-27T00:46:00.948Z,6.41
2022-11-27T00:50:52.482Z,6.39
2022-11-27T00:55:54.501Z,6.42
2022-11-27T01:00:46.994Z,6.42
2022-11-27T01:05:44.335Z,6.38
2022-11-27T01:10:35.657Z,6.44
2022-11-27T01:15:35.157Z,6.41
2022-11-27T01:20:39.718Z,6.32
2022-11-27T01:25:33.593Z,6.43
2022-11-27T01:30:32.614Z,6.45
2022-11-27T01:35:26.561Z,6.41
2022-11-27T01:40:28.306Z,6.34
2022-11-27T01:45:28.605Z,6.32
2022-11-27T01:50:31.635Z,6.40
2022-11-27T01:55:35.123Z,6.35
2022-11-27T02:00:34.185Z,6.37
2022-11-27T02:05:31.172Z,6.34
2022-11-27T02:10:48.986Z,6.31
2022-11-27T02:15:49.262Z,6.31
2022-11-27T02:20:53.903Z,6.34
2022-11-27T02:26:03.530Z,6.36
2022-11-27T02:31:23.262Z,6.40
2022-11-27T02:36:27.669Z,6.38
2022-11-27T02:41:27.258Z,6.41
2022-11-27T02:46:30.477Z,6.43
2022-11-27T02:51:26.831Z,6.51
2022-11-27T02:56:23.751Z,6.49
2022-11-27T03:01:22.330Z,6.58
2022-11-27T03:06:26.226Z,6.61
2022-11-27T03:11:18.990Z,6.54
2022-11-27T03:16:21.706Z,6.69
2022-11-27T03:21:35.752Z,6.70
2022-11-27T03:26:30.264Z,6.72
2022-11-27T03:31:29.510Z,6.57
2022-11-27T03:36:25.610Z,6.68
2022-11-27T03:41:28.068Z,6.68
2022-11-27T03:46:29.065Z,6.71
2022-11-27T03:51:39.423Z,6.66
2022-11-27T03:56:39.562Z,6.72
2022-11-27T04:01:38.416Z,6.68
2022-11-27T04:06:35.627Z,6.72
2022-11-27T04:11:43.586Z,6.74
2022-11-27T04:16:43.673Z,6.76
2022-11-27T04:21:40.766Z,6.78
2022-11-27T04:26:30.931Z,6.69
2022-11-27T04:31:21.136Z,6.72
2022-11-27T04:36:12.279Z,6.65
2022-11-27T04:41:13.005Z,6.59
2022-11-27T04:46:05.310Z,6.60
2022-11-27T04:50:59.133Z,6.53
2022-11-27T04:55:53.223Z,6.51
2022-11-27T05:00:55.266Z,6.40
2022-11-27T05:05:50.644Z,6.47
2022-11-27T05:10:49.230Z,6.46
2022-11-27T05:15:40.927Z,6.42
2022-11-27T05:20:37.704Z,6.37
2022-11-27T05:25:38.581Z,6.47
2022-11-27T05:30:29.543Z,6.44
2022-11-27T05:35:25.179Z,6.43
2022-11-27T05:40:32.891Z,6.40
2022-11-27T05:45:23.930Z,6.39
2022-11-27T05:50:14.612Z,6.37
2022-11-27T05:55:05.005Z,6.32
2022-11-27T06:00:00.003Z,6.18
2022-11-27T06:04:57.681Z,6.16
2022-11-27T06:09:48.975Z,6.20
2022-11-27T06:14:53.328Z,6.21
2022-11-27T06:19:52.120Z,6.29
2022-11-27T06:24:52.810Z,6.27
2022-11-27T06:29:45.902Z,6.27
2022-11-27T06:34:41.196Z,6.18
2022-11-27T06:39:42.693Z,6.29
2022-11-27T06:44:36.009Z,6.31
2022-11-27T06:49:32.786Z,6.31
2022-11-27T06:54:35.245Z,6.33
2022-11-27T06:59:35.097Z,6.35
2022-11-27T07:04:27.451Z,6.26
2022-11-27T07:09:19.722Z,6.28
2022-11-27T07:14:12.182Z,6.25
2022-11-27T07:19:15.948Z,6.37
2022-11-27T07:24:07.898Z,6.37
2022-11-27T07:29:02.825Z,6.30
2022-11-27T07:34:01.442Z,6.37
2022-11-27T07:38:59.048Z,6.26
2022-11-27T07:43:57.777Z,6.23
2022-11-27T07:48:48.617Z,6.36
2022-11-27T07:53:46.814Z,6.44
2022-11-27T07:58:51.929Z,6.10
2022-11-27T08:03:47.239Z,6.50
2022-11-27T08:08:42.407Z,6.54
2022-11-27T08:13:39.002Z,6.43
2022-11-27T08:18:41.850Z,6.57
2022-11-27T08:23:34.545Z,6.59
2022-11-27T08:28:27.894Z,6.53
2022-11-27T08:33:19.722Z,6.57
2022-11-27T08:38:14.889Z,6.57
2022-11-27T08:43:10.365Z,6.56
2022-11-27T08:48:16.038Z,6.59
2022-11-27T08:53:17.390Z,6.59
2022-11-27T08:58:07.256Z,6.64
2022-11-27T09:02:57.336Z,6.58
2022-11-27T09:07:50.102Z,6.63
2022-11-27T09:12:50.104Z,6.68
2022-11-27T09:17:43.869Z,6.65
2022-11-27T09:22:35.020Z,6.72
2022-11-27T09:27:36.487Z,6.73
2022-11-27T09:32:34.085Z,6.75
2022-11-27T09:37:29.845Z,6.78
2022-11-27T09:42:38.134Z,6.74
2022-11-27T09:47:42.165Z,6.83
2022-11-27T09:52:43.630Z,6.87
2022-11-27T09:57:44.900Z,6.81
2022-11-27T10:02:45.853Z,6.89
2022-11-27T10:07:55.403Z,6.91
2022-11-27T10:13:10.769Z,6.94
2022-11-27T10:18:08.103Z,6.96
2022-11-27T10:23:11.945Z,6.98
2022-11-27T10:28:34.672Z,7.01
2022-11-27T10:33:41.606Z,7.03
2022-11-27T10:38:39.095Z,7.04
2022-11-27T10:43:34.808Z,7.06
2022-11-27T10:48:33.095Z,7.11
2022-11-27T10:53:33.886Z,7.13
2022-11-27T10:58:38.096Z,7.16
2022-11-27T11:03:32.428Z,7.22
2022-11-27T11:08:25.642Z,7.24
2022-11-27T11:13:34.159Z,7.29
2022-11-27T11:18:27.722Z,7.32
2022-11-27T11:23:33.434Z,7.34
2022-11-27T11:28:35.123Z,7.28
2022-11-27T11:33:37.064Z,7.37
2022-11-27T11:38:41.672Z,7.49
2022-11-27T11:43:38.103Z,7.54
2022-11-27T11:48:37.142Z,7.58
2022-11-27T11:53:41.081Z,7.60
2022-11-27T11:59:12.145Z,7.56
2022-11-27T12:04:19.143Z,7.69
2022-11-27T12:10:02.284Z,7.73
2022-11-27T12:15:11.324Z,7.72
2022-11-27T12:20:26.996Z,7.75
2022-11-27T12:25:36.534Z,7.68
2022-11-27T12:30:37.061Z,7.76
2022-11-27T12:35:37.779Z,7.75
2022-11-27T12:40:48.072Z,7.59
2022-11-27T12:45:47.447Z,7.70
2022-11-27T12:50:57.131Z,7.62
2022-11-27T12:56:12.265Z,7.69
2022-11-27T13:01:11.216Z,7.68
2022-11-27T13:06:11.533Z,7.66
2022-11-27T13:11:14.226Z,7.64
2022-11-27T13:16:15.731Z,7.66
2022-11-27T13:21:14.360Z,7.62
2022-11-27T13:26:18.052Z,7.67
2022-11-27T13:31:19.427Z,7.65
2022-11-27T13:36:23.216Z,7.62
2022-11-27T13:41:40.259Z,7.72
2022-11-27T13:46:34.047Z,7.66
2022-11-27T13:51:32.793Z,7.71
2022-11-27T13:56:33.931Z,7.71
2022-11-27T14:01:42.824Z,7.70
2022-11-27T14:06:37.799Z,7.71
2022-11-27T14:11:48.376Z,7.69
2022-11-27T14:17:06.562Z,7.75
2022-11-27T14:22:02.178Z,7.76
2022-11-27T14:26:55.438Z,7.70
2022-11-27T14:32:16.711Z,7.66
2022-11-27T14:37:23.237Z,7.69
2022-11-27T14:42:28.973Z,7.67
2022-11-27T14:47:25.968Z,7.75
2022-11-27T14:52:24.571Z,7.45
2022-11-27T14:57:23.535Z,7.73
2022-11-27T15:02:26.112Z,7.63
2022-11-27T15:07:29.976Z,7.70
2022-11-27T15:12:29.047Z,7.71
2022-11-27T15:17:34.491Z,7.72
2022-11-27T15:22:37.908Z,7.72
2022-11-27T15:27:30.872Z,7.69
2022-11-27T15:32:41.064Z,7.63
2022-11-27T15:37:39.853Z,7.68
2022-11-27T15:42:31.494Z,7.64
2022-11-27T15:47:27.651Z,7.54
2022-11-27T15:52:22.579Z,7.59
2022-11-27T15:57:23.404Z,7.64
2022-11-27T16:02:18.297Z,7.59
2022-11-27T16:07:13.654Z,7.56
2022-11-27T16:12:17.119Z,7.44
2022-11-27T16:17:13.406Z,7.66
2022-11-27T16:22:04.613Z,7.68
2022-11-27T16:27:07.972Z,7.70
2022-11-27T16:32:05.763Z,7.62
2022-11-27T16:37:04.824Z,7.69
2022-11-27T16:41:58.210Z,7.62
2022-11-27T16:46:50.058Z,7.56
2022-11-27T16:51:44.493Z,7.56
2022-11-27T16:56:45.313Z,7.66
2022-11-27T17:01:59.412Z,7.41
2022-11-27T17:06:55.625Z,7.58
2022-11-27T17:11:58.184Z,7.53
2022-11-27T17:16:53.300Z,7.49
2022-11-27T17:21:51.454Z,7.41
2022-11-27T17:26:51.851Z,7.34
2022-11-27T17:31:45.050Z,7.27
2022-11-27T17:36:48.941Z,7.23
2022-11-27T17:41:55.140Z,7.18
2022-11-27T17:46:51.049Z,7.13
2022-11-27T17:51:48.230Z,7.03
2022-11-27T17:56:46.757Z,7.06
2022-11-27T18:01:46.442Z,7.02
2022-11-27T18:06:41.683Z,6.99
2022-11-27T18:11:58.175Z,6.95
2022-11-27T18:16:59.898Z,6.87
2022-11-27T18:21:56.203Z,6.89
2022-11-27T18:27:11.117Z,6.89
2022-11-27T18:32:12.702Z,6.88
2022-11-27T18:37:05.838Z,6.86
2022-11-27T18:41:59.171Z,6.83
2022-11-27T18:47:04.721Z,6.82
2022-11-27T18:52:09.172Z,6.74
2022-11-27T18:57:08.245Z,6.77
2022-11-27T19:07:07.655Z,6.62
2022-11-27T19:12:24.791Z,6.70
2022-11-27T19:17:46.876Z,6.70
2022-11-27T19:22:55.291Z,6.69
2022-11-27T19:27:51.365Z,6.70
2022-11-27T19:32:46.080Z,6.63
2022-11-27T19:37:43.816Z,6.66
2022-11-27T19:42:42.061Z,6.66
2022-11-27T19:47:39.970Z,6.66
2022-11-27T19:52:31.091Z,6.66
2022-11-27T19:57:28.970Z,6.63
2022-11-27T20:02:26.522Z,6.64
2022-11-27T20:07:22.236Z,6.63
2022-11-27T20:12:20.726Z,6.65
2022-11-27T20:17:23.937Z,6.66
2022-11-27T20:22:19.147Z,6.60
2022-11-27T20:27:16.120Z,6.64
2022-11-27T20:32:34.605Z,6.64
2022-11-27T20:37:36.722Z,6.63
2022-11-27T20:42:36.796Z,6.63
2022-11-27T20:47:29.978Z,6.65
2022-11-27T20:52:22.245Z,6.64
2022-11-27T20:57:17.451Z,6.62
2022-11-27T21:02:15.417Z,6.41
2022-11-27T21:07:17.982Z,6.67
2022-11-27T21:12:27.236Z,6.67
2022-11-27T21:17:19.962Z,6.62
2022-11-27T21:22:12.222Z,6.61
2022-11-27T21:27:02.357Z,6.70
2022-11-27T21:31:59.415Z,6.70
2022-11-27T21:36:53.924Z,6.75
2022-11-27T21:41:48.785Z,6.73
2022-11-27T21:47:01.019Z,6.76
2022-11-27T21:51:58.377Z,6.67
2022-11-27T21:56:56.312Z,6.77
2022-11-27T22:02:02.297Z,6.83
2022-11-27T22:07:00.362Z,6.87
2022-11-27T22:12:01.686Z,6.89
2022-11-27T22:16:56.610Z,6.89
2022-11-27T22:21:53.707Z,6.94
2022-11-27T22:26:48.519Z,6.90
2022-11-27T22:31:46.452Z,6.89
2022-11-27T22:36:40.560Z,6.90
2022-11-27T22:41:45.141Z,6.91
2022-11-27T22:46:44.060Z,6.90
2022-11-27T22:51:40.568Z,6.94
2022-11-27T22:56:43.365Z,6.92
2022-11-27T23:01:43.291Z,6.94
2022-11-27T23:06:54.130Z,6.95
2022-11-27T23:11:50.378Z,6.95
2022-11-27T23:16:46.707Z,6.99
2022-11-27T23:21:46.612Z,6.98
2022-11-27T23:26:45.935Z,7.04
2022-11-27T23:31:45.717Z,7.07
2022-11-27T23:36:41.167Z,7.03
2022-11-27T23:41:46.445Z,7.11
2022-11-27T23:46:48.966Z,7.09
2022-11-27T23:51:44.403Z,7.13
2022-11-27T23:56:37.296Z,6.99
